sensor_id;sensor_type;location;lat;lon;timestamp;P1;durP1;ratioP1;P2;durP2;ratioP2
80322;SDS011;69636;52.372;13.610;2024-02-16T00:01:15;14.40;;;10.43;;
80322;SDS011;69636;52.372;13.610;2024-02-16T00:03:42;16.15;;;10.70;;
80322;SDS011;69636;52.372;13.610;2024-02-16T00:06:10;15.00;;;10.05;;
80322;SDS011;69636;52.372;13.610;2024-02-16T00:08:38;15.02;;;10.02;;
80322;SDS011;69636;52.372;13.610;2024-02-16T00:11:05;14.77;;;11.18;;
80322;SDS011;69636;52.372;13.610;2024-02-16T00:13:33;15.80;;;12.65;;
80322;SDS011;69636;52.372;13.610;2024-02-16T00:16:00;16.25;;;11.38;;
80322;SDS011;69636;52.372;13.610;2024-02-16T00:18:29;16.15;;;10.93;;
80322;SDS011;69636;52.372;13.610;2024-02-16T00:20:57;15.63;;;11.68;;
80322;SDS011;69636;52.372;13.610;2024-02-16T00:23:24;15.00;;;11.95;;
80322;SDS011;69636;52.372;13.610;2024-02-16T00:25:51;15.05;;;10.77;;
80322;SDS011;69636;52.372;13.610;2024-02-16T00:28:19;13.60;;;10.20;;
80322;SDS011;69636;52.372;13.610;2024-02-16T00:30:46;16.08;;;11.07;;
80322;SDS011;69636;52.372;13.610;2024-02-16T00:33:13;15.95;;;11.85;;
80322;SDS011;69636;52.372;13.610;2024-02-16T00:35:42;15.98;;;12.15;;
80322;SDS011;69636;52.372;13.610;2024-02-16T00:38:09;17.17;;;13.27;;
80322;SDS011;69636;52.372;13.610;2024-02-16T00:40:37;16.33;;;12.20;;
80322;SDS011;69636;52.372;13.610;2024-02-16T00:43:04;17.65;;;11.80;;
80322;SDS011;69636;52.372;13.610;2024-02-16T00:45:31;17.80;;;11.55;;
80322;SDS011;69636;52.372;13.610;2024-02-16T00:47:59;17.75;;;11.68;;
80322;SDS011;69636;52.372;13.610;2024-02-16T00:50:26;15.27;;;11.70;;
80322;SDS011;69636;52.372;13.610;2024-02-16T00:52:55;18.42;;;13.30;;
80322;SDS011;69636;52.372;13.610;2024-02-16T00:55:23;15.63;;;11.30;;
80322;SDS011;69636;52.372;13.610;2024-02-16T00:57:50;17.88;;;13.20;;
80322;SDS011;69636;52.372;13.610;2024-02-16T01:00:18;17.65;;;12.15;;
80322;SDS011;69636;52.372;13.610;2024-02-16T01:02:45;18.50;;;12.20;;
80322;SDS011;69636;52.372;13.610;2024-02-16T01:05:13;17.98;;;14.70;;
80322;SDS011;69636;52.372;13.610;2024-02-16T01:07:40;17.25;;;12.25;;
80322;SDS011;69636;52.372;13.610;2024-02-16T01:10:10;17.15;;;14.07;;
80322;SDS011;69636;52.372;13.610;2024-02-16T01:12:37;17.35;;;12.27;;
80322;SDS011;69636;52.372;13.610;2024-02-16T01:15:05;17.15;;;12.00;;
80322;SDS011;69636;52.372;13.610;2024-02-16T01:17:33;18.23;;;12.95;;
80322;SDS011;69636;52.372;13.610;2024-02-16T01:20:01;17.50;;;13.18;;
80322;SDS011;69636;52.372;13.610;2024-02-16T01:22:28;17.83;;;13.48;;
80322;SDS011;69636;52.372;13.610;2024-02-16T01:24:55;19.73;;;13.73;;
80322;SDS011;69636;52.372;13.610;2024-02-16T01:27:24;16.45;;;12.27;;
80322;SDS011;69636;52.372;13.610;2024-02-16T01:29:51;18.90;;;13.35;;
80322;SDS011;69636;52.372;13.610;2024-02-16T01:32:19;18.83;;;13.80;;
80322;SDS011;69636;52.372;13.610;2024-02-16T01:34:46;22.13;;;15.70;;
80322;SDS011;69636;52.372;13.610;2024-02-16T01:37:14;17.88;;;12.88;;
80322;SDS011;69636;52.372;13.610;2024-02-16T01:39:41;17.00;;;12.63;;
80322;SDS011;69636;52.372;13.610;2024-02-16T01:42:08;17.38;;;13.30;;
80322;SDS011;69636;52.372;13.610;2024-02-16T01:44:37;19.23;;;14.93;;
80322;SDS011;69636;52.372;13.610;2024-02-16T01:47:04;18.48;;;13.50;;
80322;SDS011;69636;52.372;13.610;2024-02-16T01:49:32;19.50;;;12.93;;
80322;SDS011;69636;52.372;13.610;2024-02-16T01:52:00;19.65;;;12.48;;
80322;SDS011;69636;52.372;13.610;2024-02-16T01:54:28;20.35;;;14.77;;
80322;SDS011;69636;52.372;13.610;2024-02-16T01:56:56;15.48;;;11.38;;
80322;SDS011;69636;52.372;13.610;2024-02-16T01:59:23;19.08;;;14.43;;
80322;SDS011;69636;52.372;13.610;2024-02-16T02:01:53;17.88;;;13.95;;
80322;SDS011;69636;52.372;13.610;2024-02-16T02:04:20;17.15;;;12.95;;
80322;SDS011;69636;52.372;13.610;2024-02-16T02:06:47;19.30;;;14.10;;
80322;SDS011;69636;52.372;13.610;2024-02-16T02:09:15;17.85;;;12.27;;
80322;SDS011;69636;52.372;13.610;2024-02-16T02:11:43;17.80;;;13.23;;
80322;SDS011;69636;52.372;13.610;2024-02-16T02:14:11;18.90;;;13.20;;
80322;SDS011;69636;52.372;13.610;2024-02-16T02:16:38;18.15;;;12.23;;
80322;SDS011;69636;52.372;13.610;2024-02-16T02:19:22;18.80;;;12.40;;
80322;SDS011;69636;52.372;13.610;2024-02-16T02:21:50;18.52;;;13.00;;
80322;SDS011;69636;52.372;13.610;2024-02-16T02:24:19;18.88;;;13.40;;
80322;SDS011;69636;52.372;13.610;2024-02-16T02:26:46;18.40;;;13.07;;
80322;SDS011;69636;52.372;13.610;2024-02-16T02:29:13;19.67;;;13.32;;
80322;SDS011;69636;52.372;13.610;2024-02-16T02:31:41;17.50;;;11.88;;
80322;SDS011;69636;52.372;13.610;2024-02-16T02:34:08;18.90;;;13.68;;
80322;SDS011;69636;52.372;13.610;2024-02-16T02:36:36;17.75;;;12.23;;
80322;SDS011;69636;52.372;13.610;2024-02-16T02:39:04;19.10;;;15.63;;
80322;SDS011;69636;52.372;13.610;2024-02-16T02:41:32;19.85;;;12.55;;
80322;SDS011;69636;52.372;13.610;2024-02-16T02:44:00;19.40;;;12.82;;
80322;SDS011;69636;52.372;13.610;2024-02-16T02:46:27;21.23;;;14.35;;
80322;SDS011;69636;52.372;13.610;2024-02-16T02:48:55;19.58;;;13.45;;
80322;SDS011;69636;52.372;13.610;2024-02-16T02:51:22;16.00;;;12.23;;
80322;SDS011;69636;52.372;13.610;2024-02-16T02:53:50;16.92;;;12.32;;
80322;SDS011;69636;52.372;13.610;2024-02-16T02:56:17;18.50;;;13.23;;
80322;SDS011;69636;52.372;13.610;2024-02-16T02:58:46;17.75;;;13.95;;
80322;SDS011;69636;52.372;13.610;2024-02-16T03:01:13;19.55;;;13.50;;
80322;SDS011;69636;52.372;13.610;2024-02-16T03:03:41;19.00;;;14.07;;
80322;SDS011;69636;52.372;13.610;2024-02-16T03:06:09;19.98;;;13.82;;
80322;SDS011;69636;52.372;13.610;2024-02-16T03:08:36;19.40;;;14.40;;
80322;SDS011;69636;52.372;13.610;2024-02-16T03:11:04;19.95;;;15.10;;
80322;SDS011;69636;52.372;13.610;2024-02-16T03:13:31;19.05;;;14.07;;
80322;SDS011;69636;52.372;13.610;2024-02-16T03:16:00;20.30;;;14.13;;
80322;SDS011;69636;52.372;13.610;2024-02-16T03:18:29;19.10;;;13.45;;
80322;SDS011;69636;52.372;13.610;2024-02-16T03:20:56;18.95;;;12.70;;
80322;SDS011;69636;52.372;13.610;2024-02-16T03:23:24;20.42;;;13.27;;
80322;SDS011;69636;52.372;13.610;2024-02-16T03:25:52;17.20;;;12.85;;
80322;SDS011;69636;52.372;13.610;2024-02-16T03:28:19;18.05;;;13.65;;
80322;SDS011;69636;52.372;13.610;2024-02-16T03:30:47;19.35;;;13.15;;
80322;SDS011;69636;52.372;13.610;2024-02-16T03:33:15;19.88;;;13.32;;
80322;SDS011;69636;52.372;13.610;2024-02-16T03:35:43;19.15;;;13.50;;
80322;SDS011;69636;52.372;13.610;2024-02-16T03:38:10;18.92;;;13.38;;
80322;SDS011;69636;52.372;13.610;2024-02-16T03:40:37;17.65;;;13.13;;
80322;SDS011;69636;52.372;13.610;2024-02-16T03:43:05;20.52;;;15.73;;
80322;SDS011;69636;52.372;13.610;2024-02-16T03:45:32;18.45;;;13.13;;
80322;SDS011;69636;52.372;13.610;2024-02-16T03:48:00;17.83;;;11.77;;
80322;SDS011;69636;52.372;13.610;2024-02-16T03:50:29;17.55;;;12.38;;
80322;SDS011;69636;52.372;13.610;2024-02-16T03:52:56;18.77;;;12.55;;
80322;SDS011;69636;52.372;13.610;2024-02-16T03:55:23;19.92;;;13.25;;
80322;SDS011;69636;52.372;13.610;2024-02-16T03:57:50;19.30;;;13.82;;
80322;SDS011;69636;52.372;13.610;2024-02-16T04:00:18;17.23;;;11.38;;
80322;SDS011;69636;52.372;13.610;2024-02-16T04:02:45;18.95;;;12.05;;
80322;SDS011;69636;52.372;13.610;2024-02-16T04:05:13;17.45;;;11.88;;
80322;SDS011;69636;52.372;13.610;2024-02-16T04:07:42;16.85;;;11.35;;
80322;SDS011;69636;52.372;13.610;2024-02-16T04:10:09;21.10;;;12.20;;
80322;SDS011;69636;52.372;13.610;2024-02-16T04:12:37;19.17;;;13.35;;
80322;SDS011;69636;52.372;13.610;2024-02-16T04:15:05;17.70;;;12.30;;
80322;SDS011;69636;52.372;13.610;2024-02-16T04:17:32;18.67;;;12.32;;
80322;SDS011;69636;52.372;13.610;2024-02-16T04:20:00;19.02;;;12.27;;
80322;SDS011;69636;52.372;13.610;2024-02-16T04:22:27;19.25;;;12.18;;
80322;SDS011;69636;52.372;13.610;2024-02-16T04:24:56;19.10;;;13.05;;
80322;SDS011;69636;52.372;13.610;2024-02-16T04:27:23;17.10;;;11.13;;
80322;SDS011;69636;52.372;13.610;2024-02-16T04:29:50;17.48;;;12.27;;
80322;SDS011;69636;52.372;13.610;2024-02-16T04:32:18;15.55;;;11.63;;
80322;SDS011;69636;52.372;13.610;2024-02-16T04:34:45;17.88;;;11.80;;
80322;SDS011;69636;52.372;13.610;2024-02-16T04:37:13;17.55;;;13.07;;
80322;SDS011;69636;52.372;13.610;2024-02-16T04:39:40;17.88;;;14.43;;
80322;SDS011;69636;52.372;13.610;2024-02-16T04:42:09;16.63;;;11.90;;
80322;SDS011;69636;52.372;13.610;2024-02-16T04:44:36;15.98;;;12.38;;
80322;SDS011;69636;52.372;13.610;2024-02-16T04:47:04;16.08;;;12.05;;
80322;SDS011;69636;52.372;13.610;2024-02-16T04:49:31;18.30;;;11.30;;
80322;SDS011;69636;52.372;13.610;2024-02-16T04:51:59;15.80;;;11.10;;
80322;SDS011;69636;52.372;13.610;2024-02-16T04:54:26;15.60;;;10.48;;
80322;SDS011;69636;52.372;13.610;2024-02-16T04:56:54;16.23;;;11.57;;
80322;SDS011;69636;52.372;13.610;2024-02-16T04:59:22;16.77;;;12.98;;
80322;SDS011;69636;52.372;13.610;2024-02-16T05:01:50;15.13;;;10.27;;
80322;SDS011;69636;52.372;13.610;2024-02-16T05:04:17;13.88;;;9.95;;
80322;SDS011;69636;52.372;13.610;2024-02-16T05:06:45;15.63;;;11.23;;
80322;SDS011;69636;52.372;13.610;2024-02-16T05:09:12;15.25;;;10.13;;
80322;SDS011;69636;52.372;13.610;2024-02-16T05:11:40;14.90;;;11.77;;
80322;SDS011;69636;52.372;13.610;2024-02-16T05:14:07;14.27;;;10.43;;
80322;SDS011;69636;52.372;13.610;2024-02-16T05:16:36;15.45;;;9.73;;
80322;SDS011;69636;52.372;13.610;2024-02-16T05:19:03;13.52;;;9.32;;
80322;SDS011;69636;52.372;13.610;2024-02-16T05:21:31;15.27;;;10.80;;
80322;SDS011;69636;52.372;13.610;2024-02-16T05:23:58;13.45;;;10.60;;
80322;SDS011;69636;52.372;13.610;2024-02-16T05:26:26;14.40;;;11.27;;
80322;SDS011;69636;52.372;13.610;2024-02-16T05:28:53;16.00;;;10.85;;
80322;SDS011;69636;52.372;13.610;2024-02-16T05:31:20;14.98;;;10.38;;
80322;SDS011;69636;52.372;13.610;2024-02-16T05:33:49;15.23;;;9.60;;
80322;SDS011;69636;52.372;13.610;2024-02-16T05:36:18;15.32;;;9.88;;
80322;SDS011;69636;52.372;13.610;2024-02-16T05:38:46;13.32;;;9.40;;
80322;SDS011;69636;52.372;13.610;2024-02-16T05:41:13;15.55;;;11.48;;
80322;SDS011;69636;52.372;13.610;2024-02-16T05:43:42;16.77;;;11.43;;
80322;SDS011;69636;52.372;13.610;2024-02-16T05:46:12;15.75;;;11.05;;
80322;SDS011;69636;52.372;13.610;2024-02-16T05:48:40;15.25;;;11.52;;
80322;SDS011;69636;52.372;13.610;2024-02-16T05:51:08;14.38;;;9.00;;
80322;SDS011;69636;52.372;13.610;2024-02-16T05:53:36;16.77;;;12.07;;
80322;SDS011;69636;52.372;13.610;2024-02-16T05:56:04;14.52;;;11.15;;
80322;SDS011;69636;52.372;13.610;2024-02-16T05:58:31;14.98;;;10.30;;
80322;SDS011;69636;52.372;13.610;2024-02-16T06:00:59;15.55;;;11.38;;
80322;SDS011;69636;52.372;13.610;2024-02-16T06:03:26;15.27;;;11.00;;
80322;SDS011;69636;52.372;13.610;2024-02-16T06:05:54;12.15;;;9.35;;
80322;SDS011;69636;52.372;13.610;2024-02-16T06:08:23;14.13;;;11.18;;
80322;SDS011;69636;52.372;13.610;2024-02-16T06:10:52;13.40;;;9.13;;
80322;SDS011;69636;52.372;13.610;2024-02-16T06:13:19;15.95;;;11.68;;
80322;SDS011;69636;52.372;13.610;2024-02-16T06:15:47;13.23;;;10.10;;
80322;SDS011;69636;52.372;13.610;2024-02-16T06:18:14;16.23;;;11.60;;
80322;SDS011;69636;52.372;13.610;2024-02-16T06:20:42;16.45;;;10.80;;
80322;SDS011;69636;52.372;13.610;2024-02-16T06:23:09;15.95;;;10.93;;
80322;SDS011;69636;52.372;13.610;2024-02-16T06:25:38;18.15;;;11.98;;
80322;SDS011;69636;52.372;13.610;2024-02-16T06:28:05;14.02;;;10.20;;
80322;SDS011;69636;52.372;13.610;2024-02-16T06:30:32;16.67;;;11.15;;
80322;SDS011;69636;52.372;13.610;2024-02-16T06:33:00;16.25;;;12.10;;
80322;SDS011;69636;52.372;13.610;2024-02-16T06:35:28;15.32;;;10.90;;
80322;SDS011;69636;52.372;13.610;2024-02-16T06:37:56;15.30;;;12.30;;
80322;SDS011;69636;52.372;13.610;2024-02-16T06:40:23;15.30;;;12.40;;
80322;SDS011;69636;52.372;13.610;2024-02-16T06:42:52;15.07;;;11.88;;
80322;SDS011;69636;52.372;13.610;2024-02-16T06:45:19;16.55;;;11.23;;
80322;SDS011;69636;52.372;13.610;2024-02-16T06:47:47;17.30;;;11.35;;
80322;SDS011;69636;52.372;13.610;2024-02-16T06:50:14;17.50;;;11.93;;
80322;SDS011;69636;52.372;13.610;2024-02-16T06:52:42;14.25;;;11.38;;
80322;SDS011;69636;52.372;13.610;2024-02-16T06:55:10;15.82;;;11.48;;
80322;SDS011;69636;52.372;13.610;2024-02-16T06:57:37;16.20;;;10.63;;
80322;SDS011;69636;52.372;13.610;2024-02-16T07:00:07;14.82;;;10.95;;
80322;SDS011;69636;52.372;13.610;2024-02-16T07:02:35;17.08;;;11.63;;
80322;SDS011;69636;52.372;13.610;2024-02-16T07:05:03;16.10;;;10.05;;
80322;SDS011;69636;52.372;13.610;2024-02-16T07:07:31;15.90;;;10.30;;
80322;SDS011;69636;52.372;13.610;2024-02-16T07:09:58;17.27;;;14.02;;
80322;SDS011;69636;52.372;13.610;2024-02-16T07:12:25;14.55;;;10.40;;
80322;SDS011;69636;52.372;13.610;2024-02-16T07:14:53;14.23;;;9.88;;
80322;SDS011;69636;52.372;13.610;2024-02-16T07:17:22;15.80;;;10.60;;
80322;SDS011;69636;52.372;13.610;2024-02-16T07:19:49;16.48;;;9.55;;
80322;SDS011;69636;52.372;13.610;2024-02-16T07:22:16;15.32;;;11.00;;
80322;SDS011;69636;52.372;13.610;2024-02-16T07:24:44;15.27;;;10.88;;
80322;SDS011;69636;52.372;13.610;2024-02-16T07:27:11;13.95;;;11.13;;
80322;SDS011;69636;52.372;13.610;2024-02-16T07:29:38;14.75;;;10.65;;
80322;SDS011;69636;52.372;13.610;2024-02-16T07:32:06;17.50;;;12.73;;
80322;SDS011;69636;52.372;13.610;2024-02-16T07:34:35;15.00;;;10.52;;
80322;SDS011;69636;52.372;13.610;2024-02-16T07:37:03;15.15;;;12.18;;
80322;SDS011;69636;52.372;13.610;2024-02-16T07:39:30;14.07;;;10.60;;
80322;SDS011;69636;52.372;13.610;2024-02-16T07:41:58;13.77;;;10.15;;
80322;SDS011;69636;52.372;13.610;2024-02-16T07:44:27;16.15;;;11.25;;
80322;SDS011;69636;52.372;13.610;2024-02-16T07:46:54;15.05;;;11.35;;
80322;SDS011;69636;52.372;13.610;2024-02-16T07:49:23;14.00;;;11.07;;
80322;SDS011;69636;52.372;13.610;2024-02-16T07:51:52;14.48;;;12.10;;
80322;SDS011;69636;52.372;13.610;2024-02-16T07:54:19;14.40;;;10.18;;
80322;SDS011;69636;52.372;13.610;2024-02-16T07:56:47;14.57;;;10.15;;
80322;SDS011;69636;52.372;13.610;2024-02-16T07:59:17;14.20;;;10.68;;
80322;SDS011;69636;52.372;13.610;2024-02-16T08:01:45;13.52;;;10.45;;
80322;SDS011;69636;52.372;13.610;2024-02-16T08:04:12;13.13;;;9.68;;
80322;SDS011;69636;52.372;13.610;2024-02-16T08:06:39;12.07;;;9.80;;
80322;SDS011;69636;52.372;13.610;2024-02-16T08:09:09;14.30;;;10.20;;
80322;SDS011;69636;52.372;13.610;2024-02-16T08:11:36;12.10;;;9.35;;
80322;SDS011;69636;52.372;13.610;2024-02-16T08:14:04;13.55;;;9.27;;
80322;SDS011;69636;52.372;13.610;2024-02-16T08:16:32;13.98;;;8.60;;
80322;SDS011;69636;52.372;13.610;2024-02-16T08:18:59;14.60;;;9.10;;
80322;SDS011;69636;52.372;13.610;2024-02-16T08:21:29;11.85;;;7.88;;
80322;SDS011;69636;52.372;13.610;2024-02-16T08:23:57;11.70;;;7.57;;
80322;SDS011;69636;52.372;13.610;2024-02-16T08:26:26;61.72;;;42.83;;
80322;SDS011;69636;52.372;13.610;2024-02-16T08:28:53;12.65;;;9.63;;
80322;SDS011;69636;52.372;13.610;2024-02-16T08:31:21;12.38;;;9.43;;
80322;SDS011;69636;52.372;13.610;2024-02-16T08:33:48;11.10;;;8.15;;
80322;SDS011;69636;52.372;13.610;2024-02-16T08:36:16;10.75;;;9.10;;
80322;SDS011;69636;52.372;13.610;2024-02-16T08:38:43;11.40;;;9.25;;
80322;SDS011;69636;52.372;13.610;2024-02-16T08:41:11;11.77;;;8.38;;
80322;SDS011;69636;52.372;13.610;2024-02-16T08:43:40;10.40;;;7.80;;
80322;SDS011;69636;52.372;13.610;2024-02-16T08:46:07;11.82;;;7.55;;
80322;SDS011;69636;52.372;13.610;2024-02-16T08:48:35;12.77;;;10.07;;
80322;SDS011;69636;52.372;13.610;2024-02-16T08:51:02;11.45;;;9.10;;
80322;SDS011;69636;52.372;13.610;2024-02-16T08:53:30;12.35;;;9.68;;
80322;SDS011;69636;52.372;13.610;2024-02-16T08:55:58;12.85;;;9.07;;
80322;SDS011;69636;52.372;13.610;2024-02-16T08:58:25;11.90;;;7.82;;
80322;SDS011;69636;52.372;13.610;2024-02-16T09:00:54;12.57;;;8.15;;
80322;SDS011;69636;52.372;13.610;2024-02-16T09:03:21;12.73;;;7.78;;
80322;SDS011;69636;52.372;13.610;2024-02-16T09:05:49;11.30;;;8.20;;
80322;SDS011;69636;52.372;13.610;2024-02-16T09:08:16;10.18;;;8.50;;
80322;SDS011;69636;52.372;13.610;2024-02-16T09:10:44;11.23;;;8.90;;
80322;SDS011;69636;52.372;13.610;2024-02-16T09:13:12;10.68;;;7.32;;
80322;SDS011;69636;52.372;13.610;2024-02-16T09:15:40;11.23;;;8.07;;
80322;SDS011;69636;52.372;13.610;2024-02-16T09:18:09;11.15;;;8.07;;
80322;SDS011;69636;52.372;13.610;2024-02-16T09:20:37;11.88;;;8.38;;
80322;SDS011;69636;52.372;13.610;2024-02-16T09:23:04;13.65;;;8.05;;
80322;SDS011;69636;52.372;13.610;2024-02-16T09:25:31;10.15;;;7.53;;
80322;SDS011;69636;52.372;13.610;2024-02-16T09:27:59;10.20;;;7.20;;
80322;SDS011;69636;52.372;13.610;2024-02-16T09:30:26;9.52;;;6.85;;
80322;SDS011;69636;52.372;13.610;2024-02-16T09:32:53;9.95;;;7.72;;
80322;SDS011;69636;52.372;13.610;2024-02-16T09:35:22;10.63;;;7.30;;
80322;SDS011;69636;52.372;13.610;2024-02-16T09:37:50;10.55;;;6.97;;
80322;SDS011;69636;52.372;13.610;2024-02-16T09:40:19;11.40;;;8.18;;
80322;SDS011;69636;52.372;13.610;2024-02-16T09:42:47;10.27;;;8.40;;
80322;SDS011;69636;52.372;13.610;2024-02-16T09:45:15;9.60;;;7.00;;
80322;SDS011;69636;52.372;13.610;2024-02-16T09:47:43;9.77;;;6.60;;
80322;SDS011;69636;52.372;13.610;2024-02-16T09:50:28;10.73;;;7.28;;
80322;SDS011;69636;52.372;13.610;2024-02-16T09:52:56;10.45;;;7.20;;
80322;SDS011;69636;52.372;13.610;2024-02-16T09:55:24;10.93;;;7.47;;
80322;SDS011;69636;52.372;13.610;2024-02-16T09:57:58;9.52;;;7.07;;
80322;SDS011;69636;52.372;13.610;2024-02-16T10:00:25;8.75;;;6.25;;
80322;SDS011;69636;52.372;13.610;2024-02-16T10:02:53;11.20;;;7.10;;
80322;SDS011;69636;52.372;13.610;2024-02-16T10:05:20;9.07;;;6.55;;
80322;SDS011;69636;52.372;13.610;2024-02-16T10:07:49;11.57;;;7.00;;
80322;SDS011;69636;52.372;13.610;2024-02-16T10:10:20;7.30;;;5.43;;
80322;SDS011;69636;52.372;13.610;2024-02-16T10:12:48;9.18;;;7.18;;
80322;SDS011;69636;52.372;13.610;2024-02-16T10:15:19;8.38;;;6.43;;
80322;SDS011;69636;52.372;13.610;2024-02-16T10:17:56;9.02;;;6.15;;
80322;SDS011;69636;52.372;13.610;2024-02-16T10:20:24;7.95;;;5.93;;
80322;SDS011;69636;52.372;13.610;2024-02-16T10:23:03;7.85;;;6.00;;
80322;SDS011;69636;52.372;13.610;2024-02-16T10:25:31;9.63;;;5.95;;
80322;SDS011;69636;52.372;13.610;2024-02-16T10:27:59;9.52;;;7.10;;
80322;SDS011;69636;52.372;13.610;2024-02-16T10:30:34;10.48;;;6.28;;
80322;SDS011;69636;52.372;13.610;2024-02-16T10:33:03;10.35;;;6.88;;
80322;SDS011;69636;52.372;13.610;2024-02-16T10:35:32;9.52;;;6.10;;
80322;SDS011;69636;52.372;13.610;2024-02-16T10:38:02;9.98;;;6.93;;
80322;SDS011;69636;52.372;13.610;2024-02-16T10:40:32;9.15;;;5.82;;
80322;SDS011;69636;52.372;13.610;2024-02-16T10:43:02;8.45;;;6.03;;
80322;SDS011;69636;52.372;13.610;2024-02-16T10:45:33;9.10;;;7.13;;
80322;SDS011;69636;52.372;13.610;2024-02-16T10:48:01;8.32;;;6.30;;
80322;SDS011;69636;52.372;13.610;2024-02-16T10:50:28;10.02;;;6.07;;
80322;SDS011;69636;52.372;13.610;2024-02-16T10:52:56;9.15;;;6.47;;
80322;SDS011;69636;52.372;13.610;2024-02-16T10:55:28;9.25;;;6.80;;
80322;SDS011;69636;52.372;13.610;2024-02-16T10:57:56;10.48;;;6.43;;
80322;SDS011;69636;52.372;13.610;2024-02-16T11:00:23;6.78;;;5.47;;
80322;SDS011;69636;52.372;13.610;2024-02-16T11:02:52;8.57;;;6.90;;
80322;SDS011;69636;52.372;13.610;2024-02-16T11:05:20;7.55;;;6.15;;
80322;SDS011;69636;52.372;13.610;2024-02-16T11:07:47;8.82;;;6.10;;
80322;SDS011;69636;52.372;13.610;2024-02-16T11:10:25;7.90;;;6.00;;
80322;SDS011;69636;52.372;13.610;2024-02-16T11:12:55;9.15;;;6.40;;
80322;SDS011;69636;52.372;13.610;2024-02-16T11:15:27;7.93;;;5.82;;
80322;SDS011;69636;52.372;13.610;2024-02-16T11:20:23;7.75;;;5.47;;
80322;SDS011;69636;52.372;13.610;2024-02-16T11:22:51;7.63;;;5.60;;
80322;SDS011;69636;52.372;13.610;2024-02-16T11:25:18;6.22;;;4.75;;
80322;SDS011;69636;52.372;13.610;2024-02-16T11:27:46;7.57;;;5.82;;
80322;SDS011;69636;52.372;13.610;2024-02-16T11:30:15;8.30;;;5.18;;
80322;SDS011;69636;52.372;13.610;2024-02-16T11:32:43;7.18;;;4.22;;
80322;SDS011;69636;52.372;13.610;2024-02-16T11:35:10;8.10;;;4.90;;
80322;SDS011;69636;52.372;13.610;2024-02-16T11:37:38;6.50;;;5.15;;
80322;SDS011;69636;52.372;13.610;2024-02-16T11:40:06;7.25;;;5.95;;
80322;SDS011;69636;52.372;13.610;2024-02-16T11:42:34;7.68;;;5.78;;
80322;SDS011;69636;52.372;13.610;2024-02-16T11:45:02;6.47;;;4.53;;
80322;SDS011;69636;52.372;13.610;2024-02-16T11:50:02;6.82;;;5.15;;
80322;SDS011;69636;52.372;13.610;2024-02-16T11:52:30;5.95;;;4.05;;
80322;SDS011;69636;52.372;13.610;2024-02-16T11:54:58;6.22;;;4.53;;
80322;SDS011;69636;52.372;13.610;2024-02-16T11:57:28;5.88;;;4.35;;
80322;SDS011;69636;52.372;13.610;2024-02-16T11:59:56;6.53;;;4.38;;
80322;SDS011;69636;52.372;13.610;2024-02-16T12:02:24;6.10;;;4.15;;
80322;SDS011;69636;52.372;13.610;2024-02-16T12:04:58;5.82;;;4.05;;
80322;SDS011;69636;52.372;13.610;2024-02-16T12:07:30;6.72;;;4.15;;
80322;SDS011;69636;52.372;13.610;2024-02-16T12:09:59;6.45;;;4.45;;
80322;SDS011;69636;52.372;13.610;2024-02-16T12:12:30;7.25;;;4.43;;
80322;SDS011;69636;52.372;13.610;2024-02-16T12:14:58;6.28;;;4.10;;
80322;SDS011;69636;52.372;13.610;2024-02-16T12:17:26;5.97;;;4.28;;
80322;SDS011;69636;52.372;13.610;2024-02-16T12:19:53;6.10;;;4.57;;
80322;SDS011;69636;52.372;13.610;2024-02-16T12:22:23;6.32;;;4.10;;
80322;SDS011;69636;52.372;13.610;2024-02-16T12:24:50;6.22;;;5.40;;
80322;SDS011;69636;52.372;13.610;2024-02-16T12:27:18;5.20;;;3.78;;
80322;SDS011;69636;52.372;13.610;2024-02-16T12:29:45;8.27;;;4.78;;
80322;SDS011;69636;52.372;13.610;2024-02-16T12:32:13;6.00;;;3.83;;
80322;SDS011;69636;52.372;13.610;2024-02-16T12:34:40;5.63;;;4.05;;
80322;SDS011;69636;52.372;13.610;2024-02-16T12:37:08;5.63;;;3.70;;
80322;SDS011;69636;52.372;13.610;2024-02-16T12:39:37;6.45;;;4.03;;
80322;SDS011;69636;52.372;13.610;2024-02-16T12:42:05;6.38;;;3.70;;
80322;SDS011;69636;52.372;13.610;2024-02-16T12:44:33;5.72;;;3.78;;
80322;SDS011;69636;52.372;13.610;2024-02-16T12:47:00;5.10;;;3.28;;
80322;SDS011;69636;52.372;13.610;2024-02-16T12:49:27;4.90;;;3.17;;
80322;SDS011;69636;52.372;13.610;2024-02-16T12:51:55;5.13;;;3.35;;
80322;SDS011;69636;52.372;13.610;2024-02-16T12:54:22;4.88;;;3.80;;
80322;SDS011;69636;52.372;13.610;2024-02-16T12:56:51;5.50;;;3.38;;
80322;SDS011;69636;52.372;13.610;2024-02-16T12:59:18;4.80;;;2.63;;
80322;SDS011;69636;52.372;13.610;2024-02-16T13:01:46;3.85;;;2.80;;
80322;SDS011;69636;52.372;13.610;2024-02-16T13:04:13;5.72;;;2.78;;
80322;SDS011;69636;52.372;13.610;2024-02-16T13:06:41;5.68;;;3.67;;
80322;SDS011;69636;52.372;13.610;2024-02-16T13:09:08;5.63;;;3.47;;
80322;SDS011;69636;52.372;13.610;2024-02-16T13:11:36;5.20;;;3.33;;
80322;SDS011;69636;52.372;13.610;2024-02-16T13:16:32;4.65;;;3.00;;
80322;SDS011;69636;52.372;13.610;2024-02-16T13:18:59;6.05;;;3.13;;
80322;SDS011;69636;52.372;13.610;2024-02-16T13:21:27;5.78;;;3.15;;
80322;SDS011;69636;52.372;13.610;2024-02-16T13:23:54;5.95;;;5.05;;
80322;SDS011;69636;52.372;13.610;2024-02-16T13:26:22;4.63;;;3.05;;
80322;SDS011;69636;52.372;13.610;2024-02-16T13:28:49;5.65;;;2.97;;
80322;SDS011;69636;52.372;13.610;2024-02-16T13:31:18;5.55;;;3.60;;
80322;SDS011;69636;52.372;13.610;2024-02-16T13:33:45;5.03;;;3.80;;
80322;SDS011;69636;52.372;13.610;2024-02-16T13:36:13;5.57;;;3.22;;
80322;SDS011;69636;52.372;13.610;2024-02-16T13:38:40;5.30;;;3.42;;
80322;SDS011;69636;52.372;13.610;2024-02-16T13:41:08;6.25;;;3.70;;
80322;SDS011;69636;52.372;13.610;2024-02-16T13:43:35;5.80;;;3.47;;
80322;SDS011;69636;52.372;13.610;2024-02-16T13:46:04;4.53;;;2.88;;
80322;SDS011;69636;52.372;13.610;2024-02-16T13:48:32;4.75;;;3.13;;
80322;SDS011;69636;52.372;13.610;2024-02-16T13:51:00;5.10;;;3.40;;
80322;SDS011;69636;52.372;13.610;2024-02-16T13:53:28;5.90;;;3.55;;
80322;SDS011;69636;52.372;13.610;2024-02-16T13:55:55;4.35;;;3.00;;
80322;SDS011;69636;52.372;13.610;2024-02-16T13:58:22;4.97;;;3.15;;
80322;SDS011;69636;52.372;13.610;2024-02-16T14:00:50;5.72;;;3.58;;
80322;SDS011;69636;52.372;13.610;2024-02-16T14:03:17;5.85;;;4.28;;
80322;SDS011;69636;52.372;13.610;2024-02-16T14:05:46;4.68;;;3.30;;
80322;SDS011;69636;52.372;13.610;2024-02-16T14:08:14;5.00;;;2.83;;
80322;SDS011;69636;52.372;13.610;2024-02-16T14:10:41;5.95;;;4.18;;
80322;SDS011;69636;52.372;13.610;2024-02-16T14:13:09;5.15;;;3.88;;
80322;SDS011;69636;52.372;13.610;2024-02-16T14:15:36;6.95;;;3.78;;
80322;SDS011;69636;52.372;13.610;2024-02-16T14:18:04;5.82;;;4.55;;
80322;SDS011;69636;52.372;13.610;2024-02-16T14:20:40;5.35;;;3.90;;
80322;SDS011;69636;52.372;13.610;2024-02-16T14:23:09;5.38;;;3.33;;
80322;SDS011;69636;52.372;13.610;2024-02-16T14:25:36;6.55;;;3.55;;
80322;SDS011;69636;52.372;13.610;2024-02-16T14:28:04;4.80;;;3.45;;
80322;SDS011;69636;52.372;13.610;2024-02-16T14:30:32;5.40;;;3.88;;